createdAt,value
2022-10-13T00:00:21.668Z,9.53
2022-10-13T00:01:21.715Z,9.62
2022-10-13T00:02:21.754Z,9.73
2022-10-13T00:03:21.614Z,9.67
2022-10-13T00:04:21.596Z,9.67
2022-10-13T00:05:21.582Z,9.73
2022-10-13T00:06:21.576Z,9.75
2022-10-13T00:07:21.562Z,9.71
2022-10-13T00:08:21.542Z,9.78
2022-10-13T00:09:21.533Z,9.71
2022-10-13T00:10:21.618Z,9.70
2022-10-13T00:11:21.500Z,9.75
2022-10-13T00:12:21.665Z,9.78
2022-10-13T00:13:21.471Z,9.70
2022-10-13T00:14:21.455Z,9.78
2022-10-13T00:15:21.445Z,9.81
2022-10-13T00:16:21.449Z,9.75
2022-10-13T00:17:21.573Z,9.68
2022-10-13T00:18:21.399Z,9.86
2022-10-13T00:19:21.391Z,9.81
2022-10-13T00:20:21.380Z,9.71
2022-10-13T00:21:21.364Z,9.81
2022-10-13T00:22:21.616Z,9.80
2022-10-13T00:23:21.339Z,9.95
2022-10-13T00:24:21.324Z,9.74
2022-10-13T00:25:21.311Z,9.71
2022-10-13T00:26:21.295Z,9.77
2022-10-13T00:27:21.275Z,9.71
2022-10-13T00:28:21.327Z,9.86
2022-10-13T00:29:21.255Z,9.89
2022-10-13T00:30:21.236Z,9.85
2022-10-13T00:31:21.227Z,9.83
2022-10-13T00:32:21.536Z,9.85
2022-10-13T00:33:21.199Z,9.89
2022-10-13T00:34:21.179Z,9.83
2022-10-13T00:35:21.175Z,9.93
2022-10-13T00:36:21.163Z,9.75
2022-10-13T00:37:21.145Z,9.88
2022-10-13T00:38:21.126Z,9.88
2022-10-13T00:39:21.119Z,9.93
2022-10-13T00:40:21.098Z,9.96
2022-10-13T00:41:21.091Z,9.83
2022-10-13T00:42:21.312Z,9.96
2022-10-13T00:43:21.058Z,9.74
2022-10-13T00:44:21.046Z,9.89
2022-10-13T00:45:21.036Z,9.80
2022-10-13T00:46:21.019Z,9.91
2022-10-13T00:47:21.012Z,9.98
2022-10-13T00:48:21.009Z,9.89
2022-10-13T00:49:20.984Z,10.02
2022-10-13T00:50:20.970Z,9.91
2022-10-13T00:51:20.955Z,9.96
2022-10-13T00:52:21.154Z,9.92
2022-10-13T00:53:20.950Z,10.07
2022-10-13T00:54:20.914Z,9.99
2022-10-13T00:55:20.902Z,10.02
2022-10-13T00:56:20.886Z,9.98
2022-10-13T00:57:20.875Z,9.91
2022-10-13T00:58:20.855Z,9.95
2022-10-13T00:59:20.849Z,10.02
2022-10-13T01:00:23.409Z,9.99
2022-10-13T01:01:20.812Z,9.91
2022-10-13T01:02:21.156Z,9.92
2022-10-13T01:03:20.789Z,9.99
2022-10-13T01:04:20.798Z,9.88
2022-10-13T01:05:20.763Z,10.07
2022-10-13T01:06:23.664Z,9.89
2022-10-13T01:07:20.731Z,10.02
2022-10-13T01:08:20.715Z,9.95
2022-10-13T01:09:20.718Z,9.88
2022-10-13T01:10:20.695Z,10.06
2022-10-13T01:11:20.680Z,9.92
2022-10-13T01:12:21.175Z,10.02
2022-10-13T01:13:20.652Z,10.04
2022-10-13T01:14:20.634Z,10.02
2022-10-13T01:15:20.970Z,9.96
2022-10-13T01:16:20.615Z,10.09
2022-10-13T01:17:20.593Z,10.06
2022-10-13T01:18:20.584Z,10.01
2022-10-13T01:19:20.564Z,9.91
2022-10-13T01:20:20.574Z,10.11
2022-10-13T01:21:20.537Z,10.04
2022-10-13T01:22:21.047Z,10.13
2022-10-13T01:23:20.567Z,9.98
2022-10-13T01:24:20.536Z,10.17
2022-10-13T01:25:20.489Z,10.16
2022-10-13T01:26:20.484Z,10.18
2022-10-13T01:27:20.460Z,10.16
2022-10-13T01:28:20.503Z,9.98
2022-10-13T01:29:20.437Z,10.16
2022-10-13T01:30:20.420Z,10.13
2022-10-13T01:31:20.402Z,10.13
2022-10-13T01:33:11.466Z,10.07
2022-10-13T01:34:11.451Z,10.17
2022-10-13T01:35:11.433Z,10.07
2022-10-13T01:36:11.435Z,10.07
2022-10-13T01:37:11.410Z,10.26
2022-10-13T01:38:11.389Z,10.13
2022-10-13T01:39:11.381Z,10.32
2022-10-13T01:40:11.365Z,10.26
2022-10-13T01:41:11.354Z,10.25
2022-10-13T01:42:11.377Z,10.31
2022-10-13T01:43:11.327Z,10.22
2022-10-13T01:44:11.309Z,10.35
2022-10-13T01:45:11.296Z,10.46
2022-10-13T01:46:11.280Z,10.25
2022-10-13T01:47:11.266Z,10.26
2022-10-13T01:48:11.253Z,10.38
2022-10-13T01:49:11.246Z,10.35
2022-10-13T01:50:11.226Z,10.35
2022-10-13T01:51:11.228Z,10.43
2022-10-13T01:52:11.304Z,10.32
2022-10-13T01:53:11.187Z,10.29
2022-10-13T01:54:11.172Z,10.29
2022-10-13T01:55:11.162Z,10.39
2022-10-13T01:56:11.149Z,10.35
2022-10-13T01:57:11.130Z,10.51
2022-10-13T01:58:11.115Z,10.44
2022-10-13T01:59:11.103Z,10.49
2022-10-13T02:00:11.087Z,10.55
2022-10-13T02:01:11.159Z,10.55
2022-10-13T02:02:11.067Z,10.44
2022-10-13T02:03:11.158Z,10.51
2022-10-13T02:04:11.037Z,10.42
2022-10-13T02:05:11.029Z,10.42
2022-10-13T02:06:11.009Z,10.49
2022-10-13T02:07:10.997Z,10.55
2022-10-13T02:08:11.007Z,10.47
2022-10-13T02:09:10.969Z,10.51
2022-10-13T02:10:10.956Z,10.58
2022-10-13T02:11:10.944Z,10.36
2022-10-13T02:12:10.940Z,10.43
2022-10-13T02:13:10.911Z,10.60
2022-10-13T02:14:10.900Z,10.54
2022-10-13T02:15:11.086Z,10.65
2022-10-13T02:16:10.876Z,10.47
2022-10-13T02:17:10.866Z,10.46
2022-10-13T02:18:10.846Z,10.54
2022-10-13T02:19:10.837Z,10.62
2022-10-13T02:20:10.820Z,10.63
2022-10-13T02:21:10.809Z,10.54
2022-10-13T02:22:10.793Z,10.47
2022-10-13T02:23:10.782Z,10.60
2022-10-13T02:24:10.850Z,10.58
2022-10-13T02:25:10.748Z,10.54
2022-10-13T02:26:10.737Z,10.62
2022-10-13T02:27:10.721Z,10.62
2022-10-13T02:28:10.711Z,10.57
2022-10-13T02:29:10.707Z,10.65
2022-10-13T02:30:10.682Z,10.66
2022-10-13T02:31:10.668Z,10.60
2022-10-13T02:32:10.657Z,10.55
2022-10-13T02:33:10.650Z,10.63
2022-10-13T02:34:10.638Z,10.46
2022-10-13T02:35:10.619Z,10.70
2022-10-13T02:36:10.605Z,10.65
2022-10-13T02:37:36.119Z,10.60
2022-10-13T02:38:36.110Z,10.54
2022-10-13T02:39:36.155Z,10.62
2022-10-13T02:40:36.083Z,10.62
2022-10-13T02:41:36.062Z,10.63
2022-10-13T02:42:36.050Z,10.62
2022-10-13T02:43:36.035Z,10.63
2022-10-13T02:44:36.028Z,10.69
2022-10-13T02:45:36.009Z,10.65
2022-10-13T02:46:36.003Z,10.68
2022-10-13T02:47:35.987Z,10.60
2022-10-13T02:48:35.972Z,10.69
2022-10-13T02:49:35.960Z,10.66
2022-10-13T02:50:35.952Z,10.80
2022-10-13T02:51:39.879Z,10.57
2022-10-13T02:52:35.923Z,10.65
2022-10-13T02:53:35.901Z,10.80
2022-10-13T02:54:35.894Z,10.76
2022-10-13T02:55:35.895Z,10.63
2022-10-13T02:56:35.862Z,10.66
2022-10-13T02:57:35.855Z,10.66
2022-10-13T02:58:35.843Z,10.73
2022-10-13T02:59:35.824Z,10.78
2022-10-13T03:00:35.903Z,10.75
2022-10-13T03:01:35.806Z,10.68
2022-10-13T03:02:35.789Z,10.83
2022-10-13T03:03:35.777Z,10.68
2022-10-13T03:04:35.768Z,10.73
2022-10-13T03:05:35.744Z,10.70
2022-10-13T03:06:35.737Z,10.73
2022-10-13T03:07:35.720Z,10.69
2022-10-13T03:08:35.703Z,10.66
2022-10-13T03:09:35.697Z,10.69
2022-10-13T03:10:35.679Z,10.80
2022-10-13T03:11:35.681Z,10.72
2022-10-13T03:12:35.653Z,10.63
2022-10-13T03:13:35.642Z,10.76
2022-10-13T03:14:35.632Z,10.81
2022-10-13T03:15:35.616Z,10.75
2022-10-13T03:16:35.601Z,10.84
2022-10-13T03:17:35.593Z,10.80
2022-10-13T03:18:35.576Z,10.73
2022-10-13T03:19:35.559Z,10.81
2022-10-13T03:20:35.548Z,10.81
2022-10-13T03:21:35.532Z,10.88
2022-10-13T03:22:35.517Z,10.80
2022-10-13T03:23:35.500Z,10.76
2022-10-13T03:24:35.495Z,10.69
2022-10-13T03:25:35.474Z,10.80
2022-10-13T03:26:35.463Z,10.62
2022-10-13T03:27:35.468Z,10.72
2022-10-13T03:28:35.491Z,10.63
2022-10-13T03:29:35.427Z,10.62
2022-10-13T03:30:35.413Z,10.69
2022-10-13T03:31:35.403Z,10.68
2022-10-13T03:32:35.383Z,10.66
2022-10-13T03:33:35.373Z,10.66
2022-10-13T03:34:35.358Z,10.62
2022-10-13T03:35:35.355Z,10.46
2022-10-13T03:36:35.329Z,10.55
2022-10-13T03:37:35.319Z,10.44
2022-10-13T03:38:35.297Z,10.35
2022-10-13T03:39:35.291Z,10.31
2022-10-13T03:40:35.273Z,10.32
2022-10-13T03:41:35.263Z,10.32
2022-10-13T03:42:35.245Z,10.20
2022-10-13T03:43:35.278Z,10.16
2022-10-13T03:44:35.223Z,10.18
2022-10-13T03:45:35.211Z,10.06
2022-10-13T03:46:35.198Z,10.02
2022-10-13T03:47:35.189Z,10.09
2022-10-13T03:48:35.173Z,10.04
2022-10-13T03:49:35.161Z,9.80
2022-10-13T03:50:35.144Z,9.93
2022-10-13T03:51:35.134Z,9.86
2022-10-13T03:52:35.116Z,9.85
2022-10-13T03:53:35.106Z,9.80
2022-10-13T03:54:35.088Z,9.75
2022-10-13T03:55:35.073Z,9.81
2022-10-13T03:56:35.056Z,9.68
2022-10-13T03:57:35.054Z,9.68
2022-10-13T03:58:35.035Z,9.68
2022-10-13T03:59:36.995Z,9.65
2022-10-13T04:00:35.010Z,9.56
2022-10-13T04:01:35.091Z,9.58
2022-10-13T04:02:34.974Z,9.56
2022-10-13T04:03:34.970Z,9.50
2022-10-13T04:04:34.948Z,9.63
2022-10-13T04:05:34.942Z,9.68
2022-10-13T04:06:34.932Z,9.41
2022-10-13T04:07:34.914Z,9.53
2022-10-13T04:08:34.899Z,9.42
2022-10-13T04:09:34.888Z,9.53
2022-10-13T04:10:34.872Z,9.44
2022-10-13T04:11:34.860Z,9.41
2022-10-13T04:12:34.844Z,9.38
2022-10-13T04:13:34.829Z,9.50
2022-10-13T04:14:34.815Z,9.38
2022-10-13T04:15:34.823Z,9.32
2022-10-13T04:16:34.789Z,9.31
2022-10-13T04:17:34.781Z,9.52
2022-10-13T04:18:34.767Z,9.26
2022-10-13T04:19:34.755Z,9.32
2022-10-13T04:20:34.740Z,9.37
2022-10-13T04:21:34.734Z,9.34
2022-10-13T04:22:34.710Z,9.24
2022-10-13T04:23:34.696Z,9.23
2022-10-13T04:24:34.680Z,9.15
2022-10-13T04:25:34.674Z,9.19
2022-10-13T04:26:34.656Z,9.23
2022-10-13T04:27:34.644Z,9.23
2022-10-13T04:28:34.739Z,9.06
2022-10-13T04:29:34.620Z,9.13
2022-10-13T04:30:34.604Z,9.20
2022-10-13T04:31:34.613Z,9.17
2022-10-13T04:32:34.579Z,9.17
2022-10-13T04:33:34.669Z,9.24
2022-10-13T04:34:34.547Z,9.24
2022-10-13T04:35:34.540Z,9.23
2022-10-13T04:36:34.520Z,9.12
2022-10-13T04:37:34.513Z,9.12
2022-10-13T04:38:34.496Z,9.30
2022-10-13T04:39:34.490Z,9.27
2022-10-13T04:40:34.469Z,9.24
2022-10-13T04:41:34.462Z,9.15
2022-10-13T04:42:34.441Z,9.20
2022-10-13T04:43:34.434Z,9.15
2022-10-13T04:44:34.415Z,9.13
2022-10-13T04:45:34.408Z,9.20
2022-10-13T04:46:34.392Z,9.12
2022-10-13T04:47:37.029Z,9.10
2022-10-13T04:48:34.361Z,9.08
2022-10-13T04:49:34.352Z,9.10
2022-10-13T04:50:34.332Z,9.06
2022-10-13T04:51:34.323Z,9.08
2022-10-13T04:52:34.306Z,8.97
2022-10-13T04:53:34.296Z,9.13
2022-10-13T04:54:34.283Z,9.04
2022-10-13T04:55:34.268Z,9.06
2022-10-13T04:56:34.260Z,8.93
2022-10-13T04:57:34.248Z,9.03
2022-10-13T04:58:34.231Z,8.98
2022-10-13T04:59:34.226Z,9.06
2022-10-13T05:00:34.237Z,8.97
2022-10-13T05:01:34.190Z,8.96
2022-10-13T05:02:34.177Z,8.94
2022-10-13T05:03:34.184Z,8.85
2022-10-13T05:04:34.144Z,8.88
2022-10-13T05:05:34.136Z,8.86
2022-10-13T05:06:34.122Z,8.89
2022-10-13T05:07:34.114Z,8.86
2022-10-13T05:08:34.155Z,8.96
2022-10-13T05:09:34.085Z,8.89
2022-10-13T05:10:34.964Z,8.88
2022-10-13T05:11:34.058Z,8.85
2022-10-13T05:12:34.043Z,8.82
2022-10-13T05:13:34.041Z,8.73
2022-10-13T05:14:34.023Z,8.82
2022-10-13T05:15:34.007Z,8.94
2022-10-13T05:16:33.989Z,8.82
2022-10-13T05:17:35.444Z,8.83
2022-10-13T05:18:33.960Z,8.70
2022-10-13T05:19:34.271Z,8.80
2022-10-13T05:20:33.935Z,8.89
2022-10-13T05:21:33.924Z,8.85
2022-10-13T05:22:33.906Z,8.96
2022-10-13T05:23:33.902Z,8.96
2022-10-13T05:24:33.884Z,9.00
2022-10-13T05:25:34.098Z,9.12
2022-10-13T05:26:33.854Z,9.13
2022-10-13T05:27:33.847Z,9.01
2022-10-13T05:28:33.902Z,9.19
2022-10-13T05:29:33.821Z,9.08
2022-10-13T05:30:33.801Z,9.03
2022-10-13T05:31:33.791Z,9.15
2022-10-13T05:32:33.774Z,9.00
2022-10-13T05:33:33.764Z,9.15
2022-10-13T05:34:33.751Z,9.10
2022-10-13T05:35:33.782Z,8.97
2022-10-13T05:36:33.728Z,9.10
2022-10-13T05:37:33.718Z,9.10
2022-10-13T05:38:33.701Z,8.97
2022-10-13T05:39:33.840Z,9.04
2022-10-13T05:40:33.670Z,8.98
2022-10-13T05:41:33.669Z,8.91
2022-10-13T05:42:33.646Z,8.97
2022-10-13T05:43:33.634Z,9.10
2022-10-13T05:44:33.617Z,9.03
2022-10-13T05:45:33.609Z,9.04
2022-10-13T05:46:33.589Z,9.10
2022-10-13T05:47:33.579Z,9.15
2022-10-13T05:48:33.563Z,9.15
2022-10-13T05:49:33.555Z,9.17
2022-10-13T05:50:33.534Z,9.27
2022-10-13T05:51:33.550Z,9.22
2022-10-13T05:52:33.516Z,9.06
2022-10-13T05:53:33.505Z,9.24
2022-10-13T05:54:33.486Z,9.23
2022-10-13T05:55:33.476Z,9.17
2022-10-13T05:56:33.463Z,9.27
2022-10-13T05:57:33.456Z,9.37
2022-10-13T05:58:33.434Z,9.38
2022-10-13T05:59:33.424Z,9.44
2022-10-13T06:00:33.410Z,9.22
2022-10-13T06:01:33.408Z,9.35
2022-10-13T06:02:33.377Z,9.44
2022-10-13T06:03:33.363Z,9.34
2022-10-13T06:04:33.350Z,9.37
2022-10-13T06:05:33.341Z,9.48
2022-10-13T06:06:33.326Z,9.48
2022-10-13T06:07:33.339Z,9.53
2022-10-13T06:08:33.299Z,9.59
2022-10-13T06:09:33.291Z,9.53
2022-10-13T06:10:33.267Z,9.58
2022-10-13T06:11:33.261Z,9.50
2022-10-13T06:12:33.246Z,9.59
2022-10-13T06:13:33.232Z,9.58
2022-10-13T06:14:33.215Z,9.67
2022-10-13T06:15:33.208Z,9.70
2022-10-13T06:16:33.190Z,9.65
2022-10-13T06:17:33.182Z,9.62
2022-10-13T06:18:33.166Z,9.60
2022-10-13T06:19:33.157Z,9.75
2022-10-13T06:20:33.137Z,9.81
2022-10-13T06:21:33.130Z,9.80
2022-10-13T06:22:33.115Z,9.78
2022-10-13T06:23:33.119Z,9.96
2022-10-13T06:24:33.100Z,9.96
2022-10-13T06:25:33.071Z,9.99
2022-10-13T06:26:33.051Z,10.02
2022-10-13T06:27:33.046Z,10.14
2022-10-13T06:28:33.062Z,10.13
2022-10-13T06:29:33.021Z,10.02
2022-10-13T06:30:33.002Z,10.17
2022-10-13T06:31:33.039Z,10.18
2022-10-13T06:32:32.970Z,10.09
2022-10-13T06:33:32.971Z,10.13
2022-10-13T06:34:32.947Z,10.06
2022-10-13T06:35:32.943Z,10.16
2022-10-13T06:36:32.923Z,10.14
2022-10-13T06:37:32.908Z,10.11
2022-10-13T06:38:32.889Z,10.18
2022-10-13T06:39:32.903Z,10.07
2022-10-13T06:40:32.865Z,10.14
2022-10-13T06:41:32.857Z,10.20
2022-10-13T06:42:32.845Z,10.22
2022-10-13T06:43:39.670Z,10.20
2022-10-13T06:44:33.836Z,10.17
2022-10-13T06:45:32.805Z,10.32
2022-10-13T06:46:32.787Z,10.29
2022-10-13T06:47:32.779Z,10.24
2022-10-13T06:48:32.766Z,10.36
2022-10-13T06:49:32.751Z,10.29
2022-10-13T06:50:32.733Z,10.42
2022-10-13T06:51:32.725Z,10.55
2022-10-13T06:52:32.708Z,10.39
2022-10-13T06:53:32.689Z,10.42
2022-10-13T06:54:32.679Z,10.47
2022-10-13T06:55:32.685Z,10.36
2022-10-13T06:56:32.654Z,10.38
2022-10-13T06:57:32.643Z,10.55
2022-10-13T06:58:32.626Z,10.62
2022-10-13T06:59:32.616Z,10.62
2022-10-13T07:00:32.629Z,10.75
2022-10-13T07:01:32.589Z,10.68
2022-10-13T07:02:32.570Z,10.98
2022-10-13T07:03:32.564Z,10.93
2022-10-13T07:04:32.549Z,10.94
2022-10-13T07:05:32.536Z,10.95
2022-10-13T07:06:32.513Z,11.03
2022-10-13T07:07:32.555Z,11.08
2022-10-13T07:08:32.487Z,11.01
2022-10-13T07:09:32.484Z,11.16
2022-10-13T07:10:32.463Z,11.11
2022-10-13T07:11:32.476Z,11.13
2022-10-13T07:12:32.438Z,11.28
2022-10-13T07:13:34.978Z,11.12
2022-10-13T07:14:32.406Z,11.13
2022-10-13T07:15:32.396Z,11.17
2022-10-13T07:16:32.386Z,11.24
2022-10-13T07:17:32.374Z,11.31
2022-10-13T07:18:32.357Z,11.27
2022-10-13T07:19:32.345Z,11.19
2022-10-13T07:20:32.327Z,11.31
2022-10-13T07:21:32.323Z,11.45
2022-10-13T07:22:32.306Z,11.39
2022-10-13T07:23:32.292Z,11.45
2022-10-13T07:24:32.276Z,11.46
2022-10-13T07:25:32.269Z,11.46
2022-10-13T07:26:32.250Z,11.51
2022-10-13T07:27:32.262Z,11.44
2022-10-13T07:28:32.263Z,11.53
2022-10-13T07:29:32.214Z,11.59
2022-10-13T07:30:32.195Z,11.56
2022-10-13T07:31:32.188Z,11.49
2022-10-13T07:32:32.167Z,11.57
2022-10-13T07:33:32.154Z,11.74
2022-10-13T07:34:32.141Z,11.74
2022-10-13T07:35:32.127Z,11.84
2022-10-13T07:36:32.112Z,11.94
2022-10-13T07:37:32.109Z,11.96
2022-10-13T07:38:32.093Z,11.93
2022-10-13T07:39:32.082Z,12.12
2022-10-13T07:40:32.062Z,12.07
2022-10-13T07:41:32.051Z,12.12
2022-10-13T07:42:32.048Z,12.15
2022-10-13T07:43:32.107Z,12.29
2022-10-13T07:44:32.015Z,12.30
2022-10-13T07:45:31.997Z,12.33
2022-10-13T07:46:31.987Z,12.34
2022-10-13T07:47:31.966Z,12.38
2022-10-13T07:48:31.960Z,12.46
2022-10-13T07:49:31.945Z,12.43
2022-10-13T07:50:31.936Z,12.61
2022-10-13T07:51:31.919Z,12.54
2022-10-13T07:52:31.903Z,12.63
2022-10-13T07:53:31.892Z,12.63
2022-10-13T07:54:31.880Z,12.58
2022-10-13T07:55:31.911Z,12.62
2022-10-13T07:56:31.851Z,12.69
2022-10-13T07:57:31.834Z,12.69
2022-10-13T07:58:31.829Z,12.76
2022-10-13T07:59:31.859Z,12.74
2022-10-13T08:00:31.800Z,12.77
2022-10-13T08:01:31.879Z,12.81
2022-10-13T08:02:31.764Z,12.84
2022-10-13T08:03:31.814Z,13.01
2022-10-13T08:04:31.736Z,13.01
2022-10-13T08:05:31.723Z,13.12
2022-10-13T08:06:31.783Z,13.09
2022-10-13T08:07:31.700Z,13.27
2022-10-13T08:08:31.686Z,13.28
2022-10-13T08:09:31.674Z,13.39
2022-10-13T08:10:31.663Z,13.50
2022-10-13T08:11:31.670Z,13.68
2022-10-13T08:12:31.637Z,13.79
2022-10-13T08:13:31.613Z,13.87
2022-10-13T08:14:31.771Z,14.11
2022-10-13T08:15:31.606Z,14.23
2022-10-13T08:16:31.581Z,14.11
2022-10-13T08:17:31.572Z,14.16
2022-10-13T08:18:31.555Z,14.23
2022-10-13T08:19:31.544Z,14.12
2022-10-13T08:20:41.037Z,14.17
2022-10-13T08:21:56.942Z,14.19
2022-10-13T08:22:32.526Z,14.30
2022-10-13T08:23:31.486Z,14.27
2022-10-13T08:24:31.476Z,14.26
2022-10-13T08:25:31.659Z,14.27
2022-10-13T08:26:31.443Z,14.35
2022-10-13T08:27:49.553Z,14.21
2022-10-13T08:28:32.488Z,14.20
2022-10-13T08:29:31.503Z,14.29
2022-10-13T08:30:31.507Z,14.19
2022-10-13T08:31:31.709Z,14.27
2022-10-13T08:32:31.368Z,14.39
2022-10-13T08:33:31.354Z,14.35
2022-10-13T08:34:31.339Z,14.42
2022-10-13T08:35:34.909Z,14.53
2022-10-13T08:36:31.312Z,14.64
2022-10-13T08:37:31.298Z,14.67
2022-10-13T08:38:31.306Z,14.85
2022-10-13T08:39:31.270Z,14.95
2022-10-13T08:40:31.266Z,14.97
2022-10-13T08:41:31.243Z,15.00
2022-10-13T08:42:31.234Z,15.16
2022-10-13T08:43:31.213Z,15.18
2022-10-13T08:45:10.523Z,15.31
2022-10-13T08:45:47.671Z,15.46
2022-10-13T08:46:32.200Z,15.59
2022-10-13T08:47:31.187Z,15.92
2022-10-13T08:48:31.160Z,15.96
2022-10-13T08:49:31.138Z,16.10
2022-10-13T08:50:31.124Z,16.10
2022-10-13T08:51:31.111Z,16.17
2022-10-13T08:52:31.099Z,16.44
2022-10-13T08:53:31.078Z,16.26
2022-10-13T08:54:31.071Z,16.17
2022-10-13T08:55:31.054Z,16.30
2022-10-13T08:56:31.046Z,16.13
2022-10-13T08:57:31.081Z,16.22
2022-10-13T08:58:31.022Z,16.27
2022-10-13T08:59:31.005Z,16.25
2022-10-13T09:00:30.997Z,16.22
2022-10-13T09:01:31.034Z,15.93
2022-10-13T09:02:30.968Z,15.96
2022-10-13T09:03:30.973Z,15.96
2022-10-13T09:04:30.944Z,15.93
2022-10-13T09:05:30.923Z,15.80
2022-10-13T09:06:30.914Z,15.59
2022-10-13T09:07:30.895Z,15.52
2022-10-13T09:08:30.883Z,15.37
2022-10-13T09:09:30.872Z,15.35
2022-10-13T09:10:30.858Z,15.28
2022-10-13T09:11:30.844Z,15.25
2022-10-13T09:12:30.831Z,15.23
2022-10-13T09:13:30.818Z,15.11
2022-10-13T09:14:30.808Z,15.03
2022-10-13T09:15:30.790Z,15.03
2022-10-13T09:16:30.789Z,15.03
2022-10-13T09:17:30.774Z,15.12
2022-10-13T09:18:30.756Z,15.15
2022-10-13T09:19:30.789Z,15.25
2022-10-13T09:20:30.725Z,15.19
2022-10-13T09:21:30.716Z,15.16
2022-10-13T09:22:30.699Z,15.23
2022-10-13T09:23:30.683Z,15.18
2022-10-13T09:24:30.672Z,15.18
2022-10-13T09:25:30.659Z,15.19
2022-10-13T09:26:30.646Z,15.11
2022-10-13T09:27:30.629Z,15.16
2022-10-13T09:28:30.659Z,15.27
2022-10-13T09:29:30.619Z,15.27
2022-10-13T09:30:30.592Z,15.31
2022-10-13T09:31:30.582Z,15.28
2022-10-13T09:32:30.560Z,15.25
2022-10-13T09:33:30.546Z,15.33
2022-10-13T09:34:30.539Z,15.20
2022-10-13T09:35:30.547Z,15.25
2022-10-13T09:36:30.511Z,15.23
2022-10-13T09:37:30.495Z,15.27
2022-10-13T09:38:30.487Z,15.33
2022-10-13T09:39:30.468Z,15.33
2022-10-13T09:40:30.488Z,15.40
2022-10-13T09:41:30.447Z,15.38
2022-10-13T09:42:30.430Z,15.44
2022-10-13T09:43:30.417Z,15.43
2022-10-13T09:44:30.404Z,15.46
2022-10-13T09:45:30.389Z,15.51
2022-10-13T09:46:30.373Z,15.44
2022-10-13T09:47:30.358Z,15.38
2022-10-13T09:48:30.364Z,15.31
2022-10-13T09:49:30.332Z,15.37
2022-10-13T09:50:30.331Z,15.40
2022-10-13T09:51:30.368Z,15.46
2022-10-13T09:52:30.292Z,15.55
2022-10-13T09:53:30.277Z,15.53
2022-10-13T09:54:30.267Z,15.52
2022-10-13T09:55:32.556Z,15.74
2022-10-13T09:56:30.242Z,15.71
2022-10-13T09:57:30.228Z,15.91
2022-10-13T09:58:30.219Z,16.08
2022-10-13T09:59:30.200Z,16.08
2022-10-13T10:00:30.197Z,16.11
2022-10-13T10:01:30.176Z,16.25
2022-10-13T10:02:30.457Z,16.47
2022-10-13T10:03:30.146Z,16.50
2022-10-13T10:04:30.154Z,16.60
2022-10-13T10:05:30.117Z,16.77
2022-10-13T10:06:30.107Z,16.66
2022-10-13T10:07:30.144Z,16.81
2022-10-13T10:08:33.760Z,16.78
2022-10-13T10:09:31.083Z,16.77
2022-10-13T10:10:30.050Z,16.69
2022-10-13T10:11:30.038Z,16.73
2022-10-13T10:12:30.035Z,16.78
2022-10-13T10:13:30.008Z,16.72
2022-10-13T10:14:29.998Z,16.78
2022-10-13T10:15:29.986Z,16.66
2022-10-13T10:16:29.971Z,16.59
2022-10-13T10:17:29.960Z,16.66
2022-10-13T10:18:29.947Z,16.65
2022-10-13T10:19:29.933Z,16.60
2022-10-13T10:20:29.918Z,16.33
2022-10-13T10:21:29.907Z,16.18
2022-10-13T10:22:29.896Z,16.11
2022-10-13T10:23:29.902Z,16.08
2022-10-13T10:24:29.872Z,16.06
2022-10-13T10:25:29.879Z,16.11
2022-10-13T10:26:32.698Z,16.18
2022-10-13T10:27:29.823Z,16.25
2022-10-13T10:28:29.891Z,16.33
2022-10-13T10:29:29.848Z,16.18
2022-10-13T10:30:29.787Z,16.34
2022-10-13T10:31:29.769Z,16.48
2022-10-13T10:32:29.763Z,16.55
2022-10-13T10:33:29.748Z,16.59
2022-10-13T10:34:29.735Z,16.59
2022-10-13T10:35:29.720Z,16.66
2022-10-13T10:36:29.712Z,16.59
2022-10-13T10:37:29.699Z,16.55
2022-10-13T10:38:29.685Z,16.60
2022-10-13T10:39:29.711Z,16.62
2022-10-13T10:40:29.660Z,16.62
2022-10-13T10:41:29.641Z,16.69
2022-10-13T10:42:29.628Z,16.73
2022-10-13T10:43:29.610Z,16.63
2022-10-13T10:44:29.604Z,16.66
2022-10-13T10:45:29.586Z,16.67
2022-10-13T10:46:29.579Z,16.66
2022-10-13T10:47:30.187Z,16.66
2022-10-13T10:48:29.649Z,16.70
2022-10-13T10:49:29.540Z,16.73
2022-10-13T10:50:29.529Z,16.78
2022-10-13T10:51:29.511Z,16.75
2022-10-13T10:52:29.498Z,16.62
2022-10-13T10:53:29.485Z,16.55
2022-10-13T10:54:29.475Z,16.63
2022-10-13T10:55:29.504Z,16.67
2022-10-13T10:56:29.447Z,16.60
2022-10-13T10:57:29.434Z,16.62
2022-10-13T10:58:29.420Z,16.66
2022-10-13T10:59:29.402Z,16.78
2022-10-13T11:00:29.394Z,16.84
2022-10-13T11:01:29.429Z,16.82
2022-10-13T11:02:29.362Z,16.73
2022-10-13T11:03:29.346Z,16.75
2022-10-13T11:04:29.338Z,16.88
2022-10-13T11:05:29.319Z,16.99
2022-10-13T11:06:29.308Z,17.07
2022-10-13T11:07:29.293Z,17.14
2022-10-13T11:08:29.281Z,17.15
2022-10-13T11:09:29.271Z,17.25
2022-10-13T11:10:29.261Z,17.27
2022-10-13T11:11:33.375Z,17.20
2022-10-13T11:12:30.256Z,17.15
2022-10-13T11:13:29.217Z,17.12
2022-10-13T11:14:29.204Z,17.24
2022-10-13T11:15:29.187Z,17.09
2022-10-13T11:16:29.179Z,17.05
2022-10-13T11:17:29.162Z,17.20
2022-10-13T11:18:29.153Z,17.24
2022-10-13T11:19:29.142Z,17.20
2022-10-13T11:20:29.132Z,17.30
2022-10-13T11:21:29.113Z,17.22
2022-10-13T11:22:29.101Z,17.09
2022-10-13T11:23:29.085Z,17.24
2022-10-13T11:24:29.080Z,17.27
2022-10-13T11:25:29.056Z,17.39
2022-10-13T11:26:29.046Z,17.35
2022-10-13T11:27:29.199Z,17.38
2022-10-13T11:28:29.038Z,17.30
2022-10-13T11:29:29.006Z,17.21
2022-10-13T11:31:33.529Z,17.30
2022-10-13T11:32:29.991Z,17.42
2022-10-13T11:33:28.952Z,17.58
2022-10-13T11:34:28.944Z,17.73
2022-10-13T11:35:28.925Z,17.83
2022-10-13T11:36:28.921Z,17.95
2022-10-13T11:37:28.895Z,17.92
2022-10-13T11:38:28.885Z,18.02
2022-10-13T11:39:28.919Z,18.13
2022-10-13T11:40:28.858Z,18.11
2022-10-13T11:41:28.843Z,18.14
2022-10-13T11:42:28.833Z,18.20
2022-10-13T11:43:28.833Z,18.26
2022-10-13T11:45:28.791Z,18.23
2022-10-13T11:46:28.786Z,18.13
2022-10-13T11:47:28.765Z,18.17
2022-10-13T11:48:28.822Z,18.21
2022-10-13T11:49:28.742Z,18.14
2022-10-13T11:50:28.727Z,18.13
2022-10-13T11:51:28.710Z,18.16
2022-10-13T11:52:28.702Z,18.01
2022-10-13T11:53:28.701Z,18.02
2022-10-13T11:54:28.693Z,17.87
2022-10-13T11:55:28.660Z,17.94
2022-10-13T11:56:28.648Z,17.92
2022-10-13T11:57:28.633Z,18.02
2022-10-13T11:58:28.620Z,18.02
2022-10-13T11:59:28.637Z,18.07
2022-10-13T12:00:28.592Z,18.13
2022-10-13T12:01:28.584Z,18.26
2022-10-13T12:02:28.641Z,18.38
2022-10-13T12:03:28.560Z,18.51
2022-10-13T12:04:28.546Z,18.75
2022-10-13T12:05:28.537Z,18.69
2022-10-13T12:06:28.517Z,18.53
2022-10-13T12:07:28.506Z,18.79
2022-10-13T12:08:28.490Z,18.84
2022-10-13T12:09:28.480Z,18.99
2022-10-13T12:10:28.458Z,19.09
2022-10-13T12:11:28.452Z,19.28
2022-10-13T12:12:28.438Z,19.39
2022-10-13T12:13:28.423Z,19.72
2022-10-13T12:14:28.465Z,20.27
2022-10-13T12:15:28.427Z,20.71
2022-10-13T12:16:28.380Z,20.79
2022-10-13T12:17:28.666Z,20.94
2022-10-13T12:18:28.359Z,20.54
2022-10-13T12:19:28.352Z,20.17
2022-10-13T12:20:28.337Z,19.80
2022-10-13T12:21:28.326Z,19.90
2022-10-13T12:22:28.304Z,19.95
2022-10-13T12:23:28.297Z,19.79
2022-10-13T12:24:28.282Z,19.76
2022-10-13T12:25:28.267Z,19.90
2022-10-13T12:26:28.249Z,20.05
2022-10-13T12:27:28.242Z,20.07
2022-10-13T12:28:28.299Z,20.07
2022-10-13T12:29:31.070Z,20.16
2022-10-13T12:30:28.201Z,20.19
2022-10-13T12:31:28.214Z,20.13
2022-10-13T12:32:28.175Z,20.19
2022-10-13T12:33:28.167Z,20.30
2022-10-13T12:34:28.146Z,20.30
2022-10-13T12:35:28.138Z,20.57
2022-10-13T12:36:30.284Z,20.68
2022-10-13T12:37:28.111Z,20.90
2022-10-13T12:38:28.097Z,21.24
2022-10-13T12:39:28.087Z,21.64
2022-10-13T12:40:28.072Z,21.81
2022-10-13T12:41:28.206Z,22.12
2022-10-13T12:42:28.049Z,22.14
2022-10-13T12:43:28.033Z,22.21
2022-10-13T12:44:28.018Z,22.15
2022-10-13T12:45:28.006Z,21.83
2022-10-13T12:46:27.987Z,21.53
2022-10-13T12:47:28.009Z,21.55
2022-10-13T12:48:27.962Z,21.40
2022-10-13T12:49:27.960Z,21.19
2022-10-13T12:50:27.992Z,21.00
2022-10-13T12:51:27.938Z,20.91
2022-10-13T12:52:27.915Z,20.90
2022-10-13T12:53:27.903Z,20.94
2022-10-13T12:54:27.887Z,20.83
2022-10-13T12:55:27.878Z,20.98
2022-10-13T12:56:27.862Z,21.42
2022-10-13T12:57:27.854Z,21.66
2022-10-13T12:58:27.852Z,21.85
2022-10-13T12:59:27.827Z,21.81
2022-10-13T13:00:27.935Z,21.68
2022-10-13T13:01:27.804Z,21.43
2022-10-13T13:02:27.787Z,21.40